sensor_id;sensor_type;location;lat;lon;timestamp;temperature;humidity
18694;DHT22;9477;51.414;10.362;2024-03-25T00:01:51;7.90;99.10
18694;DHT22;9477;51.414;10.362;2024-03-25T00:03:53;7.90;99.20
18694;DHT22;9477;51.414;10.362;2024-03-25T00:05:54;7.90;99.10
18694;DHT22;9477;51.414;10.362;2024-03-25T00:07:57;7.90;99.20
18694;DHT22;9477;51.414;10.362;2024-03-25T00:09:58;7.90;99.20
18694;DHT22;9477;51.414;10.362;2024-03-25T00:11:59;7.90;99.20
18694;DHT22;9477;51.414;10.362;2024-03-25T00:14:03;8.00;99.20
18694;DHT22;9477;51.414;10.362;2024-03-25T00:16:05;8.00;99.20
18694;DHT22;9477;51.414;10.362;2024-03-25T00:18:07;8.00;99.20
18694;DHT22;9477;51.414;10.362;2024-03-25T00:20:08;8.10;99.20
18694;DHT22;9477;51.414;10.362;2024-03-25T00:22:10;8.00;99.10
18694;DHT22;9477;51.414;10.362;2024-03-25T00:24:13;8.10;99.20
18694;DHT22;9477;51.414;10.362;2024-03-25T00:26:14;8.10;99.00
18694;DHT22;9477;51.414;10.362;2024-03-25T00:28:16;8.10;99.00
18694;DHT22;9477;51.414;10.362;2024-03-25T00:30:17;8.10;99.20
18694;DHT22;9477;51.414;10.362;2024-03-25T00:32:18;8.20;99.20
18694;DHT22;9477;51.414;10.362;2024-03-25T00:34:20;8.20;99.10
18694;DHT22;9477;51.414;10.362;2024-03-25T00:36:21;8.10;98.80
18694;DHT22;9477;51.414;10.362;2024-03-25T00:38:23;8.10;99.00
18694;DHT22;9477;51.414;10.362;2024-03-25T00:40:26;8.20;99.00
18694;DHT22;9477;51.414;10.362;2024-03-25T00:42:28;8.10;98.80
18694;DHT22;9477;51.414;10.362;2024-03-25T00:44:29;7.90;98.90
18694;DHT22;9477;51.414;10.362;2024-03-25T00:46:31;7.80;99.10
18694;DHT22;9477;51.414;10.362;2024-03-25T00:48:32;7.70;99.20
18694;DHT22;9477;51.414;10.362;2024-03-25T00:50:34;7.60;99.50
18694;DHT22;9477;51.414;10.362;2024-03-25T00:52:35;7.50;99.60
18694;DHT22;9477;51.414;10.362;2024-03-25T00:54:37;7.50;99.70
18694;DHT22;9477;51.414;10.362;2024-03-25T00:56:39;7.60;99.90
18694;DHT22;9477;51.414;10.362;2024-03-25T00:58:41;7.70;99.70
18694;DHT22;9477;51.414;10.362;2024-03-25T01:00:42;7.60;99.70
18694;DHT22;9477;51.414;10.362;2024-03-25T01:02:44;7.80;99.90
18694;DHT22;9477;51.414;10.362;2024-03-25T01:04:45;7.80;99.70
18694;DHT22;9477;51.414;10.362;2024-03-25T01:06:46;7.90;99.70
18694;DHT22;9477;51.414;10.362;2024-03-25T01:08:47;7.90;99.60
18694;DHT22;9477;51.414;10.362;2024-03-25T01:10:49;7.90;99.60
18694;DHT22;9477;51.414;10.362;2024-03-25T01:12:52;7.90;99.60
18694;DHT22;9477;51.414;10.362;2024-03-25T01:14:53;7.90;99.40
18694;DHT22;9477;51.414;10.362;2024-03-25T01:16:55;7.90;99.50
18694;DHT22;9477;51.414;10.362;2024-03-25T01:18:57;7.90;99.40
18694;DHT22;9477;51.414;10.362;2024-03-25T01:20:59;7.90;99.60
18694;DHT22;9477;51.414;10.362;2024-03-25T01:23:00;8.00;99.50
18694;DHT22;9477;51.414;10.362;2024-03-25T01:25:02;8.00;99.30
18694;DHT22;9477;51.414;10.362;2024-03-25T01:27:04;8.00;99.40
18694;DHT22;9477;51.414;10.362;2024-03-25T01:29:07;8.10;99.50
18694;DHT22;9477;51.414;10.362;2024-03-25T01:31:08;8.20;99.30
18694;DHT22;9477;51.414;10.362;2024-03-25T01:33:10;8.10;99.10
18694;DHT22;9477;51.414;10.362;2024-03-25T01:35:11;8.20;99.20
18694;DHT22;9477;51.414;10.362;2024-03-25T01:37:13;8.20;99.10
18694;DHT22;9477;51.414;10.362;2024-03-25T01:39:14;8.20;99.00
18694;DHT22;9477;51.414;10.362;2024-03-25T01:41:20;8.20;98.80
18694;DHT22;9477;51.414;10.362;2024-03-25T01:43:21;8.10;98.70
18694;DHT22;9477;51.414;10.362;2024-03-25T01:45:25;8.10;98.70
18694;DHT22;9477;51.414;10.362;2024-03-25T01:47:27;8.10;98.70
18694;DHT22;9477;51.414;10.362;2024-03-25T01:49:29;8.10;98.70
18694;DHT22;9477;51.414;10.362;2024-03-25T01:51:30;8.00;98.50
18694;DHT22;9477;51.414;10.362;2024-03-25T01:53:32;8.10;98.60
18694;DHT22;9477;51.414;10.362;2024-03-25T01:55:35;8.00;98.50
18694;DHT22;9477;51.414;10.362;2024-03-25T01:57:37;8.00;98.40
18694;DHT22;9477;51.414;10.362;2024-03-25T01:59:39;7.90;98.30
18694;DHT22;9477;51.414;10.362;2024-03-25T02:01:43;8.00;98.40
18694;DHT22;9477;51.414;10.362;2024-03-25T02:03:45;8.00;98.50
18694;DHT22;9477;51.414;10.362;2024-03-25T02:05:48;8.00;98.40
18694;DHT22;9477;51.414;10.362;2024-03-25T02:07:51;7.90;98.20
18694;DHT22;9477;51.414;10.362;2024-03-25T02:09:54;8.00;98.40
18694;DHT22;9477;51.414;10.362;2024-03-25T02:11:56;8.00;98.20
18694;DHT22;9477;51.414;10.362;2024-03-25T02:13:58;8.00;98.20
18694;DHT22;9477;51.414;10.362;2024-03-25T02:15:59;8.00;98.20
18694;DHT22;9477;51.414;10.362;2024-03-25T02:18:02;7.90;98.20
18694;DHT22;9477;51.414;10.362;2024-03-25T02:20:04;7.90;98.20
18694;DHT22;9477;51.414;10.362;2024-03-25T02:22:08;7.90;98.20
18694;DHT22;9477;51.414;10.362;2024-03-25T02:24:10;7.90;98.30
18694;DHT22;9477;51.414;10.362;2024-03-25T02:26:13;8.00;98.70
18694;DHT22;9477;51.414;10.362;2024-03-25T02:28:14;7.90;98.10
18694;DHT22;9477;51.414;10.362;2024-03-25T02:30:16;8.00;98.20
18694;DHT22;9477;51.414;10.362;2024-03-25T02:32:17;8.00;98.00
18694;DHT22;9477;51.414;10.362;2024-03-25T02:34:19;7.90;98.00
18694;DHT22;9477;51.414;10.362;2024-03-25T02:36:20;7.90;98.10
18694;DHT22;9477;51.414;10.362;2024-03-25T02:38:21;8.00;98.20
18694;DHT22;9477;51.414;10.362;2024-03-25T02:40:23;8.00;98.10
18694;DHT22;9477;51.414;10.362;2024-03-25T02:42:25;8.00;98.10
18694;DHT22;9477;51.414;10.362;2024-03-25T02:44:28;8.00;98.10
18694;DHT22;9477;51.414;10.362;2024-03-25T02:46:29;8.10;98.10
18694;DHT22;9477;51.414;10.362;2024-03-25T02:48:31;8.10;98.10
18694;DHT22;9477;51.414;10.362;2024-03-25T02:50:32;8.20;98.20
18694;DHT22;9477;51.414;10.362;2024-03-25T02:52:33;8.20;98.10
18694;DHT22;9477;51.414;10.362;2024-03-25T02:54:35;8.10;97.60
18694;DHT22;9477;51.414;10.362;2024-03-25T02:56:37;8.00;97.70
18694;DHT22;9477;51.414;10.362;2024-03-25T02:58:40;8.00;98.20
18694;DHT22;9477;51.414;10.362;2024-03-25T03:00:41;8.00;97.90
18694;DHT22;9477;51.414;10.362;2024-03-25T03:02:43;8.10;97.80
18694;DHT22;9477;51.414;10.362;2024-03-25T03:04:43;8.10;97.70
18694;DHT22;9477;51.414;10.362;2024-03-25T03:06:45;8.10;97.80
18694;DHT22;9477;51.414;10.362;2024-03-25T03:08:46;8.10;97.70
18694;DHT22;9477;51.414;10.362;2024-03-25T03:10:48;8.10;97.70
18694;DHT22;9477;51.414;10.362;2024-03-25T03:12:49;8.10;97.70
18694;DHT22;9477;51.414;10.362;2024-03-25T03:14:52;8.10;97.60
18694;DHT22;9477;51.414;10.362;2024-03-25T03:16:53;8.20;97.70
18694;DHT22;9477;51.414;10.362;2024-03-25T03:18:58;8.20;97.70
18694;DHT22;9477;51.414;10.362;2024-03-25T03:20:59;8.20;97.40
18694;DHT22;9477;51.414;10.362;2024-03-25T03:23:00;8.20;97.50
18694;DHT22;9477;51.414;10.362;2024-03-25T03:25:02;8.30;97.80
18694;DHT22;9477;51.414;10.362;2024-03-25T03:27:04;8.30;97.60
18694;DHT22;9477;51.414;10.362;2024-03-25T03:29:06;8.30;97.60
18694;DHT22;9477;51.414;10.362;2024-03-25T03:31:09;8.40;97.60
18694;DHT22;9477;51.414;10.362;2024-03-25T03:33:10;8.30;97.40
18694;DHT22;9477;51.414;10.362;2024-03-25T03:35:12;8.30;97.30
18694;DHT22;9477;51.414;10.362;2024-03-25T03:37:13;8.20;97.30
18694;DHT22;9477;51.414;10.362;2024-03-25T03:39:15;8.30;97.50
18694;DHT22;9477;51.414;10.362;2024-03-25T03:41:17;8.30;97.50
18694;DHT22;9477;51.414;10.362;2024-03-25T03:43:18;8.30;97.20
18694;DHT22;9477;51.414;10.362;2024-03-25T03:45:20;8.20;97.20
18694;DHT22;9477;51.414;10.362;2024-03-25T03:47:23;8.20;97.20
18694;DHT22;9477;51.414;10.362;2024-03-25T03:49:25;8.10;97.20
18694;DHT22;9477;51.414;10.362;2024-03-25T03:51:26;8.20;97.40
18694;DHT22;9477;51.414;10.362;2024-03-25T03:53:28;8.30;97.10
18694;DHT22;9477;51.414;10.362;2024-03-25T03:55:29;8.30;97.20
18694;DHT22;9477;51.414;10.362;2024-03-25T03:57:31;8.30;97.30
18694;DHT22;9477;51.414;10.362;2024-03-25T03:59:32;8.30;97.40
18694;DHT22;9477;51.414;10.362;2024-03-25T04:01:34;8.30;97.40
18694;DHT22;9477;51.414;10.362;2024-03-25T04:03:37;8.30;97.40
18694;DHT22;9477;51.414;10.362;2024-03-25T04:05:38;8.30;97.60
18694;DHT22;9477;51.414;10.362;2024-03-25T04:07:40;8.30;97.70
18694;DHT22;9477;51.414;10.362;2024-03-25T04:09:42;8.30;97.80
18694;DHT22;9477;51.414;10.362;2024-03-25T04:11:43;8.40;97.70
18694;DHT22;9477;51.414;10.362;2024-03-25T04:13:46;8.50;97.80
18694;DHT22;9477;51.414;10.362;2024-03-25T04:15:47;8.50;97.70
18694;DHT22;9477;51.414;10.362;2024-03-25T04:17:49;8.50;97.60
18694;DHT22;9477;51.414;10.362;2024-03-25T04:19:52;8.60;97.70
18694;DHT22;9477;51.414;10.362;2024-03-25T04:21:54;8.40;97.40
18694;DHT22;9477;51.414;10.362;2024-03-25T04:23:54;8.20;97.10
18694;DHT22;9477;51.414;10.362;2024-03-25T04:26:00;8.10;97.20
18694;DHT22;9477;51.414;10.362;2024-03-25T04:28:02;8.00;97.30
18694;DHT22;9477;51.414;10.362;2024-03-25T04:30:04;7.90;97.40
18694;DHT22;9477;51.414;10.362;2024-03-25T04:32:06;8.00;97.40
18694;DHT22;9477;51.414;10.362;2024-03-25T04:34:09;7.90;97.30
18694;DHT22;9477;51.414;10.362;2024-03-25T04:36:11;7.90;97.50
18694;DHT22;9477;51.414;10.362;2024-03-25T04:38:15;7.90;97.40
18694;DHT22;9477;51.414;10.362;2024-03-25T04:40:17;8.00;97.40
18694;DHT22;9477;51.414;10.362;2024-03-25T04:42:18;7.90;97.40
18694;DHT22;9477;51.414;10.362;2024-03-25T04:44:19;8.00;97.50
18694;DHT22;9477;51.414;10.362;2024-03-25T04:46:20;7.90;97.20
18694;DHT22;9477;51.414;10.362;2024-03-25T04:48:21;7.90;97.40
18694;DHT22;9477;51.414;10.362;2024-03-25T04:50:22;7.90;97.30
18694;DHT22;9477;51.414;10.362;2024-03-25T04:52:24;7.90;97.50
18694;DHT22;9477;51.414;10.362;2024-03-25T04:54:25;7.90;97.40
18694;DHT22;9477;51.414;10.362;2024-03-25T04:56:26;8.00;97.50
18694;DHT22;9477;51.414;10.362;2024-03-25T04:58:27;8.00;97.30
18694;DHT22;9477;51.414;10.362;2024-03-25T05:00:28;8.00;97.30
18694;DHT22;9477;51.414;10.362;2024-03-25T05:02:29;8.10;97.40
18694;DHT22;9477;51.414;10.362;2024-03-25T05:04:30;8.10;97.40
18694;DHT22;9477;51.414;10.362;2024-03-25T05:06:31;8.00;97.20
18694;DHT22;9477;51.414;10.362;2024-03-25T05:08:34;8.00;97.20
18694;DHT22;9477;51.414;10.362;2024-03-25T05:10:35;8.00;97.30
18694;DHT22;9477;51.414;10.362;2024-03-25T05:12:36;8.00;97.30
18694;DHT22;9477;51.414;10.362;2024-03-25T05:14:37;8.00;97.20
18694;DHT22;9477;51.414;10.362;2024-03-25T05:16:38;8.10;97.40
18694;DHT22;9477;51.414;10.362;2024-03-25T05:18:39;8.10;97.40
18694;DHT22;9477;51.414;10.362;2024-03-25T05:20:40;8.10;97.40
18694;DHT22;9477;51.414;10.362;2024-03-25T05:22:41;8.10;97.20
18694;DHT22;9477;51.414;10.362;2024-03-25T05:24:44;8.00;97.30
18694;DHT22;9477;51.414;10.362;2024-03-25T05:26:45;8.10;97.40
18694;DHT22;9477;51.414;10.362;2024-03-25T05:28:46;8.10;97.50
18694;DHT22;9477;51.414;10.362;2024-03-25T05:30:47;8.20;97.60
18694;DHT22;9477;51.414;10.362;2024-03-25T05:32:48;8.20;97.60
18694;DHT22;9477;51.414;10.362;2024-03-25T05:34:49;8.30;97.50
18694;DHT22;9477;51.414;10.362;2024-03-25T05:36:50;8.30;97.50
18694;DHT22;9477;51.414;10.362;2024-03-25T05:38:51;8.40;97.60
18694;DHT22;9477;51.414;10.362;2024-03-25T05:40:54;8.50;97.60
18694;DHT22;9477;51.414;10.362;2024-03-25T05:42:55;8.40;97.40
18694;DHT22;9477;51.414;10.362;2024-03-25T05:44:56;8.50;97.50
18694;DHT22;9477;51.414;10.362;2024-03-25T05:46:57;8.40;97.50
18694;DHT22;9477;51.414;10.362;2024-03-25T05:49:01;8.60;97.60
18694;DHT22;9477;51.414;10.362;2024-03-25T05:51:03;8.60;97.50
18694;DHT22;9477;51.414;10.362;2024-03-25T05:53:05;8.60;97.50
18694;DHT22;9477;51.414;10.362;2024-03-25T05:55:07;8.70;97.60
18694;DHT22;9477;51.414;10.362;2024-03-25T05:57:10;8.70;97.50
18694;DHT22;9477;51.414;10.362;2024-03-25T05:59:11;8.60;97.30
18694;DHT22;9477;51.414;10.362;2024-03-25T06:01:12;8.60;97.30
18694;DHT22;9477;51.414;10.362;2024-03-25T06:03:13;8.40;97.00
18694;DHT22;9477;51.414;10.362;2024-03-25T06:05:14;8.40;97.30
18694;DHT22;9477;51.414;10.362;2024-03-25T06:07:15;8.40;97.40
18694;DHT22;9477;51.414;10.362;2024-03-25T06:09:16;8.40;97.40
18694;DHT22;9477;51.414;10.362;2024-03-25T06:11:17;8.30;97.20
18694;DHT22;9477;51.414;10.362;2024-03-25T06:13:20;8.30;97.30
18694;DHT22;9477;51.414;10.362;2024-03-25T06:15:21;8.30;97.30
18694;DHT22;9477;51.414;10.362;2024-03-25T06:17:22;8.30;97.30
18694;DHT22;9477;51.414;10.362;2024-03-25T06:19:23;8.30;97.20
18694;DHT22;9477;51.414;10.362;2024-03-25T06:21:24;8.10;96.90
18694;DHT22;9477;51.414;10.362;2024-03-25T06:23:26;7.80;96.50
18694;DHT22;9477;51.414;10.362;2024-03-25T06:25:27;7.80;97.00
18694;DHT22;9477;51.414;10.362;2024-03-25T06:27:28;7.90;97.00
18694;DHT22;9477;51.414;10.362;2024-03-25T06:29:31;7.90;97.00
18694;DHT22;9477;51.414;10.362;2024-03-25T06:31:32;7.70;96.90
18694;DHT22;9477;51.414;10.362;2024-03-25T06:33:52;7.70;97.00
18694;DHT22;9477;51.414;10.362;2024-03-25T06:36:11;7.80;97.30
18694;DHT22;9477;51.414;10.362;2024-03-25T06:38:12;7.90;97.10
18694;DHT22;9477;51.414;10.362;2024-03-25T06:40:14;7.90;97.30
18694;DHT22;9477;51.414;10.362;2024-03-25T06:42:15;8.00;97.20
18694;DHT22;9477;51.414;10.362;2024-03-25T06:44:16;8.00;97.30
18694;DHT22;9477;51.414;10.362;2024-03-25T06:46:18;8.10;97.40
18694;DHT22;9477;51.414;10.362;2024-03-25T06:48:19;8.20;97.50
18694;DHT22;9477;51.414;10.362;2024-03-25T06:50:20;8.30;97.70
18694;DHT22;9477;51.414;10.362;2024-03-25T06:52:21;8.40;97.50
18694;DHT22;9477;51.414;10.362;2024-03-25T06:54:22;8.50;97.70
18694;DHT22;9477;51.414;10.362;2024-03-25T06:56:23;8.40;97.40
18694;DHT22;9477;51.414;10.362;2024-03-25T06:58:25;8.40;97.40
18694;DHT22;9477;51.414;10.362;2024-03-25T07:00:27;8.40;97.40
18694;DHT22;9477;51.414;10.362;2024-03-25T07:02:29;8.40;97.40
18694;DHT22;9477;51.414;10.362;2024-03-25T07:04:30;8.30;97.10
18694;DHT22;9477;51.414;10.362;2024-03-25T07:06:31;8.40;97.40
18694;DHT22;9477;51.414;10.362;2024-03-25T07:08:32;8.40;97.40
18694;DHT22;9477;51.414;10.362;2024-03-25T07:10:33;8.50;97.50
18694;DHT22;9477;51.414;10.362;2024-03-25T07:12:34;8.50;97.20
18694;DHT22;9477;51.414;10.362;2024-03-25T07:14:35;8.60;97.10
18694;DHT22;9477;51.414;10.362;2024-03-25T07:16:36;8.60;97.10
18694;DHT22;9477;51.414;10.362;2024-03-25T07:18:38;8.70;97.30
18694;DHT22;9477;51.414;10.362;2024-03-25T07:20:40;8.80;97.50
18694;DHT22;9477;51.414;10.362;2024-03-25T07:22:41;8.70;97.00
18694;DHT22;9477;51.414;10.362;2024-03-25T07:24:42;8.90;97.30
18694;DHT22;9477;51.414;10.362;2024-03-25T07:26:43;8.90;97.30
18694;DHT22;9477;51.414;10.362;2024-03-25T07:28:44;8.90;97.10
18694;DHT22;9477;51.414;10.362;2024-03-25T07:30:45;8.90;97.00
18694;DHT22;9477;51.414;10.362;2024-03-25T07:32:46;8.90;96.60
18694;DHT22;9477;51.414;10.362;2024-03-25T07:34:48;9.00;96.90
18694;DHT22;9477;51.414;10.362;2024-03-25T07:36:49;8.90;97.00
18694;DHT22;9477;51.414;10.362;2024-03-25T07:38:50;8.90;96.80
18694;DHT22;9477;51.414;10.362;2024-03-25T07:40:51;9.00;97.00
18694;DHT22;9477;51.414;10.362;2024-03-25T07:42:52;9.00;96.60
18694;DHT22;9477;51.414;10.362;2024-03-25T07:44:53;9.00;96.90
18694;DHT22;9477;51.414;10.362;2024-03-25T07:46:54;9.10;97.10
18694;DHT22;9477;51.414;10.362;2024-03-25T07:48:56;9.30;97.20
18694;DHT22;9477;51.414;10.362;2024-03-25T07:50:58;9.20;96.60
18694;DHT22;9477;51.414;10.362;2024-03-25T07:52:59;9.10;96.30
18694;DHT22;9477;51.414;10.362;2024-03-25T07:55:00;9.10;96.70
18694;DHT22;9477;51.414;10.362;2024-03-25T07:57:02;9.20;96.50
18694;DHT22;9477;51.414;10.362;2024-03-25T07:59:03;9.10;96.50
18694;DHT22;9477;51.414;10.362;2024-03-25T08:01:04;9.10;96.50
18694;DHT22;9477;51.414;10.362;2024-03-25T08:03:05;9.10;96.60
18694;DHT22;9477;51.414;10.362;2024-03-25T08:05:06;9.10;96.80
18694;DHT22;9477;51.414;10.362;2024-03-25T08:07:09;9.30;96.90
18694;DHT22;9477;51.414;10.362;2024-03-25T08:09:10;9.30;96.80
18694;DHT22;9477;51.414;10.362;2024-03-25T08:11:11;9.30;96.70
18694;DHT22;9477;51.414;10.362;2024-03-25T08:13:12;9.30;96.80
18694;DHT22;9477;51.414;10.362;2024-03-25T08:15:13;9.40;96.90
18694;DHT22;9477;51.414;10.362;2024-03-25T08:17:14;9.50;96.70
18694;DHT22;9477;51.414;10.362;2024-03-25T08:19:15;9.40;96.50
18694;DHT22;9477;51.414;10.362;2024-03-25T08:21:17;9.30;96.90
18694;DHT22;9477;51.414;10.362;2024-03-25T08:23:19;9.30;97.10
18694;DHT22;9477;51.414;10.362;2024-03-25T08:25:20;9.30;97.40
18694;DHT22;9477;51.414;10.362;2024-03-25T08:27:21;9.50;97.10
18694;DHT22;9477;51.414;10.362;2024-03-25T08:29:22;9.50;97.10
18694;DHT22;9477;51.414;10.362;2024-03-25T08:31:23;9.50;96.80
18694;DHT22;9477;51.414;10.362;2024-03-25T08:33:24;9.60;97.10
18694;DHT22;9477;51.414;10.362;2024-03-25T08:35:25;9.60;97.10
18694;DHT22;9477;51.414;10.362;2024-03-25T08:37:26;9.70;97.20
18694;DHT22;9477;51.414;10.362;2024-03-25T08:39:29;9.80;96.70
18694;DHT22;9477;51.414;10.362;2024-03-25T08:41:30;9.80;96.70
18694;DHT22;9477;51.414;10.362;2024-03-25T08:43:31;9.80;96.60
18694;DHT22;9477;51.414;10.362;2024-03-25T08:45:32;9.80;96.60
18694;DHT22;9477;51.414;10.362;2024-03-25T08:47:33;9.90;96.90
18694;DHT22;9477;51.414;10.362;2024-03-25T08:49:34;10.00;96.60
18694;DHT22;9477;51.414;10.362;2024-03-25T08:51:35;10.10;96.40
18694;DHT22;9477;51.414;10.362;2024-03-25T08:53:36;10.20;96.50
18694;DHT22;9477;51.414;10.362;2024-03-25T08:55:44;10.30;96.40
18694;DHT22;9477;51.414;10.362;2024-03-25T08:57:45;10.30;96.10
18694;DHT22;9477;51.414;10.362;2024-03-25T08:59:47;10.20;95.80
18694;DHT22;9477;51.414;10.362;2024-03-25T09:01:48;10.30;96.40
18694;DHT22;9477;51.414;10.362;2024-03-25T09:03:49;10.40;96.20
18694;DHT22;9477;51.414;10.362;2024-03-25T09:05:49;10.50;95.70
18694;DHT22;9477;51.414;10.362;2024-03-25T09:07:51;10.50;95.80
18694;DHT22;9477;51.414;10.362;2024-03-25T09:09:52;10.50;95.70
18694;DHT22;9477;51.414;10.362;2024-03-25T09:12:12;10.60;95.90
18694;DHT22;9477;51.414;10.362;2024-03-25T09:14:13;10.60;94.90
18694;DHT22;9477;51.414;10.362;2024-03-25T09:16:14;10.60;94.80
18694;DHT22;9477;51.414;10.362;2024-03-25T09:18:15;10.60;94.40
18694;DHT22;9477;51.414;10.362;2024-03-25T09:20:16;10.60;94.60
18694;DHT22;9477;51.414;10.362;2024-03-25T09:22:18;10.50;93.40
18694;DHT22;9477;51.414;10.362;2024-03-25T09:24:19;10.30;93.00
18694;DHT22;9477;51.414;10.362;2024-03-25T09:26:20;10.20;93.40
18694;DHT22;9477;51.414;10.362;2024-03-25T09:28:22;10.10;93.20
18694;DHT22;9477;51.414;10.362;2024-03-25T09:30:23;10.00;93.40
18694;DHT22;9477;51.414;10.362;2024-03-25T09:32:24;10.10;94.00
18694;DHT22;9477;51.414;10.362;2024-03-25T09:34:25;10.30;94.30
18694;DHT22;9477;51.414;10.362;2024-03-25T09:36:26;10.30;93.40
18694;DHT22;9477;51.414;10.362;2024-03-25T09:38:27;10.30;93.60
18694;DHT22;9477;51.414;10.362;2024-03-25T09:40:28;10.20;93.20
18694;DHT22;9477;51.414;10.362;2024-03-25T09:42:34;10.10;93.10
18694;DHT22;9477;51.414;10.362;2024-03-25T09:44:36;10.20;93.70
18694;DHT22;9477;51.414;10.362;2024-03-25T09:46:37;10.20;93.50
18694;DHT22;9477;51.414;10.362;2024-03-25T09:48:39;10.20;93.60
18694;DHT22;9477;51.414;10.362;2024-03-25T09:50:42;10.10;93.70
18694;DHT22;9477;51.414;10.362;2024-03-25T09:52:44;10.20;94.00
18694;DHT22;9477;51.414;10.362;2024-03-25T09:54:45;10.30;93.70
18694;DHT22;9477;51.414;10.362;2024-03-25T09:56:47;10.20;93.20
18694;DHT22;9477;51.414;10.362;2024-03-25T09:58:49;10.30;93.60
18694;DHT22;9477;51.414;10.362;2024-03-25T10:00:52;10.40;94.00
18694;DHT22;9477;51.414;10.362;2024-03-25T10:02:52;10.50;93.90
18694;DHT22;9477;51.414;10.362;2024-03-25T10:04:53;10.50;93.80
18694;DHT22;9477;51.414;10.362;2024-03-25T10:06:55;10.60;93.60
18694;DHT22;9477;51.414;10.362;2024-03-25T10:08:58;10.60;93.60
18694;DHT22;9477;51.414;10.362;2024-03-25T10:11:00;10.60;93.00
18694;DHT22;9477;51.414;10.362;2024-03-25T10:13:02;10.60;92.20
18694;DHT22;9477;51.414;10.362;2024-03-25T10:15:03;10.60;92.50
18694;DHT22;9477;51.414;10.362;2024-03-25T10:17:06;10.60;92.10
18694;DHT22;9477;51.414;10.362;2024-03-25T10:19:07;10.60;92.60
18694;DHT22;9477;51.414;10.362;2024-03-25T10:21:10;10.60;92.40
18694;DHT22;9477;51.414;10.362;2024-03-25T10:23:11;10.70;93.00
18694;DHT22;9477;51.414;10.362;2024-03-25T10:25:22;10.80;92.30
18694;DHT22;9477;51.414;10.362;2024-03-25T10:27:24;10.80;92.60
18694;DHT22;9477;51.414;10.362;2024-03-25T10:29:25;10.70;92.30
18694;DHT22;9477;51.414;10.362;2024-03-25T10:31:26;10.80;92.70
18694;DHT22;9477;51.414;10.362;2024-03-25T10:33:28;10.90;92.60
18694;DHT22;9477;51.414;10.362;2024-03-25T10:35:30;11.00;93.00
18694;DHT22;9477;51.414;10.362;2024-03-25T10:37:32;11.00;92.40
18694;DHT22;9477;51.414;10.362;2024-03-25T10:39:39;11.20;90.70
18694;DHT22;9477;51.414;10.362;2024-03-25T10:41:41;11.00;91.40
18694;DHT22;9477;51.414;10.362;2024-03-25T10:43:45;10.90;91.90
18694;DHT22;9477;51.414;10.362;2024-03-25T10:45:47;10.90;91.50
18694;DHT22;9477;51.414;10.362;2024-03-25T10:47:49;10.90;91.40
18694;DHT22;9477;51.414;10.362;2024-03-25T10:49:57;10.80;91.00
18694;DHT22;9477;51.414;10.362;2024-03-25T10:51:59;10.70;91.30
18694;DHT22;9477;51.414;10.362;2024-03-25T10:54:02;10.60;91.10
18694;DHT22;9477;51.414;10.362;2024-03-25T10:56:05;10.70;91.00
18694;DHT22;9477;51.414;10.362;2024-03-25T10:58:07;10.70;90.90
18694;DHT22;9477;51.414;10.362;2024-03-25T11:00:09;10.70;90.80
18694;DHT22;9477;51.414;10.362;2024-03-25T11:02:12;10.70;91.10
18694;DHT22;9477;51.414;10.362;2024-03-25T11:04:14;10.80;91.20
18694;DHT22;9477;51.414;10.362;2024-03-25T11:06:17;10.90;91.20
18694;DHT22;9477;51.414;10.362;2024-03-25T11:08:18;10.90;90.90
18694;DHT22;9477;51.414;10.362;2024-03-25T11:10:28;10.90;91.00
18694;DHT22;9477;51.414;10.362;2024-03-25T11:12:32;11.00;91.40
18694;DHT22;9477;51.414;10.362;2024-03-25T11:14:34;11.10;91.20
18694;DHT22;9477;51.414;10.362;2024-03-25T11:16:35;11.20;91.40
18694;DHT22;9477;51.414;10.362;2024-03-25T11:18:36;11.20;91.30
18694;DHT22;9477;51.414;10.362;2024-03-25T11:20:37;11.30;91.40
18694;DHT22;9477;51.414;10.362;2024-03-25T11:22:48;11.30;91.20
18694;DHT22;9477;51.414;10.362;2024-03-25T11:24:50;11.30;90.90
18694;DHT22;9477;51.414;10.362;2024-03-25T11:26:52;11.30;91.00
18694;DHT22;9477;51.414;10.362;2024-03-25T11:28:53;11.40;91.40
18694;DHT22;9477;51.414;10.362;2024-03-25T11:30:55;11.50;91.60
18694;DHT22;9477;51.414;10.362;2024-03-25T11:32:57;11.40;90.70
18694;DHT22;9477;51.414;10.362;2024-03-25T11:34:58;11.20;90.10
18694;DHT22;9477;51.414;10.362;2024-03-25T11:36:59;11.20;90.40
18694;DHT22;9477;51.414;10.362;2024-03-25T11:39:03;11.10;90.40
18694;DHT22;9477;51.414;10.362;2024-03-25T11:41:05;11.10;90.60
18694;DHT22;9477;51.414;10.362;2024-03-25T11:43:06;11.10;90.90
18694;DHT22;9477;51.414;10.362;2024-03-25T11:45:09;11.20;90.90
18694;DHT22;9477;51.414;10.362;2024-03-25T11:47:14;11.30;91.30
18694;DHT22;9477;51.414;10.362;2024-03-25T11:49:16;11.40;91.00
18694;DHT22;9477;51.414;10.362;2024-03-25T11:51:17;11.50;91.30
18694;DHT22;9477;51.414;10.362;2024-03-25T11:53:18;11.50;90.90
18694;DHT22;9477;51.414;10.362;2024-03-25T11:55:20;11.50;90.80
18694;DHT22;9477;51.414;10.362;2024-03-25T11:57:22;11.50;90.80
18694;DHT22;9477;51.414;10.362;2024-03-25T11:59:24;11.50;90.70
18694;DHT22;9477;51.414;10.362;2024-03-25T12:01:25;11.60;90.70
18694;DHT22;9477;51.414;10.362;2024-03-25T12:03:26;11.60;90.80
18694;DHT22;9477;51.414;10.362;2024-03-25T12:05:27;11.70;91.20
18694;DHT22;9477;51.414;10.362;2024-03-25T12:07:28;11.80;91.20
18694;DHT22;9477;51.414;10.362;2024-03-25T12:09:29;11.80;91.00
18694;DHT22;9477;51.414;10.362;2024-03-25T12:11:50;11.80;91.30
18694;DHT22;9477;51.414;10.362;2024-03-25T12:13:51;11.90;91.50
18694;DHT22;9477;51.414;10.362;2024-03-25T12:15:53;12.00;91.70
18694;DHT22;9477;51.414;10.362;2024-03-25T12:17:54;12.00;91.70
18694;DHT22;9477;51.414;10.362;2024-03-25T12:19:59;12.20;91.90
18694;DHT22;9477;51.414;10.362;2024-03-25T12:22:00;12.20;91.80
18694;DHT22;9477;51.414;10.362;2024-03-25T12:24:01;12.20;91.70
18694;DHT22;9477;51.414;10.362;2024-03-25T12:26:04;12.30;91.80
18694;DHT22;9477;51.414;10.362;2024-03-25T12:28:09;12.30;91.80
18694;DHT22;9477;51.414;10.362;2024-03-25T12:30:11;12.20;91.20
18694;DHT22;9477;51.414;10.362;2024-03-25T12:32:12;12.20;91.50
18694;DHT22;9477;51.414;10.362;2024-03-25T12:34:13;12.20;91.50
18694;DHT22;9477;51.414;10.362;2024-03-25T12:36:14;12.30;91.60
18694;DHT22;9477;51.414;10.362;2024-03-25T12:38:23;12.30;91.50
18694;DHT22;9477;51.414;10.362;2024-03-25T12:40:27;12.40;91.50
18694;DHT22;9477;51.414;10.362;2024-03-25T12:42:28;12.40;91.50
18694;DHT22;9477;51.414;10.362;2024-03-25T12:44:32;12.50;91.50
18694;DHT22;9477;51.414;10.362;2024-03-25T12:46:33;12.50;90.90
18694;DHT22;9477;51.414;10.362;2024-03-25T12:48:34;12.40;91.20
18694;DHT22;9477;51.414;10.362;2024-03-25T12:50:35;12.40;91.00
18694;DHT22;9477;51.414;10.362;2024-03-25T12:52:36;12.40;90.90
18694;DHT22;9477;51.414;10.362;2024-03-25T12:54:37;12.30;90.50
18694;DHT22;9477;51.414;10.362;2024-03-25T12:56:38;12.30;90.70
18694;DHT22;9477;51.414;10.362;2024-03-25T12:58:39;12.30;90.40